Time;durP1;ratioP1;P1;durP2;ratioP2;P2;SDS_P1;SDS_P2;PMS_P1;PMS_P2;Temp;Humidity;BMP_temperature;BMP_pressure;BME280_temperature;BME280_humidity;BME280_pressure;Samples;Min_cycle;Max_cycle;Signal;HPM_P1;HPM_P2
2023/04/01 00:01:22;;;;;;;;;13.50;12.50;;;;;10.47;86.41;98964.94;4994313;28;10144;-66
2023/04/01 00:03:48;;;;;;;;;14.50;13.00;;;;;10.43;86.36;98962.97;4993669;28;10361;-67
2023/04/01 00:06:17;;;;;;;;;16.25;10.25;;;;;10.36;86.45;98957.72;4993421;28;11498;-66
2023/04/01 00:08:46;;;;;;;;;9.25;8.00;;;;;10.40;86.92;98967.75;4994755;28;10305;-66
2023/04/01 00:11:13;;;;;;;;;13.00;11.50;;;;;10.40;86.49;98965.06;4993907;28;10473;-66
2023/04/01 00:13:40;;;;;;;;;9.50;8.25;;;;;10.42;86.52;98966.72;4976450;28;10491;-67
2023/04/01 00:16:07;;;;;;;;;16.50;14.25;;;;;10.44;86.65;98972.66;4994051;28;10308;-66
2023/04/01 00:18:49;;;;;;;;;9.50;9.50;;;;;10.46;86.71;98975.94;4994420;28;11231;-64
2023/04/01 00:21:17;;;;;;;;;13.50;9.50;;;;;10.48;86.57;98973.81;4994020;28;10238;-66
2023/04/01 00:23:43;;;;;;;;;11.50;11.50;;;;;10.44;86.38;98975.34;4997224;28;10258;-66
2023/04/01 00:26:11;;;;;;;;;15.25;9.50;;;;;10.41;86.58;98971.25;4993681;28;10400;-67
2023/04/01 00:28:38;;;;;;;;;8.50;5.25;;;;;10.45;86.75;98976.97;4993379;28;10286;-69
2023/04/01 00:31:06;;;;;;;;;9.50;5.00;;;;;10.44;86.44;98980.72;4992225;28;10260;-66
2023/04/01 00:33:33;;;;;;;;;13.50;10.25;;;;;10.39;86.18;98982.25;4993223;28;10399;-66
2023/04/01 00:36:29;;;;;;;;;7.00;7.00;;;;;10.36;86.54;98976.53;4975680;28;10301;-66
2023/04/01 00:38:58;;;;;;;;;5.00;4.00;;;;;10.35;86.72;98977.59;4961568;28;10249;-66
2023/04/01 00:41:26;;;;;;;;;5.25;4.25;;;;;10.36;86.78;98985.41;4956586;28;10247;-67
2023/04/01 00:43:52;;;;;;;;;6.00;4.50;;;;;10.38;86.29;98980.63;4974025;28;10235;-66
2023/04/01 00:46:20;;;;;;;;;3.75;3.00;;;;;10.34;86.43;98978.66;4956460;28;10345;-66
2023/04/01 00:48:53;;;;;;;;;3.50;2.00;;;;;10.33;86.22;98980.53;4989531;28;10145;-67
2023/04/01 00:51:27;;;;;;;;;5.00;5.00;;;;;10.34;86.62;98981.34;4997736;28;10230;-66
2023/04/01 00:53:57;;;;;;;;;3.25;2.00;;;;;10.35;86.34;98988.34;4995259;28;10225;-66
2023/04/01 00:56:51;;;;;;;;;4.75;2.00;;;;;10.32;86.15;98986.94;4989780;28;10327;-66
2023/04/01 00:59:24;;;;;;;;;5.00;2.00;;;;;10.29;85.90;98984.75;4993002;28;10097;-66
2023/04/01 01:01:51;;;;;;;;;4.25;4.25;;;;;10.29;86.32;98984.75;4990710;28;10244;-66
2023/04/01 01:04:36;;;;;;;;;2.00;2.00;;;;;10.24;86.31;98989.97;4992754;28;10218;-66
2023/04/01 01:07:30;;;;;;;;;6.00;5.00;;;;;10.16;86.52;98993.03;4993206;28;10168;-67
2023/04/01 01:10:08;;;;;;;;;4.50;2.00;;;;;10.20;86.84;98991.50;4992787;28;10320;-66
2023/04/01 01:12:44;;;;;;;;;2.50;2.50;;;;;10.20;86.22;98991.50;5007922;28;10122;-66
2023/04/01 01:15:26;;;;;;;;;5.25;5.25;;;;;10.21;86.51;98998.53;4991547;28;10211;-66
2023/04/01 01:18:14;;;;;;;;;8.25;7.25;;;;;10.23;87.02;98998.28;4992598;28;10249;-66
2023/04/01 01:21:02;;;;;;;;;7.25;5.25;;;;;10.21;86.64;98998.53;4989464;28;10572;-66
2023/04/01 01:23:47;;;;;;;;;1.50;1.50;;;;;10.20;86.71;99004.94;4992381;28;10314;-66
2023/04/01 01:26:33;;;;;;;;;6.00;6.00;;;;;10.20;86.69;98994.19;4991272;28;10168;-66
2023/04/01 01:29:27;;;;;;;;;2.00;2.00;;;;;10.24;86.63;99003.44;5007824;28;10331;-66
2023/04/01 01:32:05;;;;;;;;;4.50;3.00;;;;;10.24;86.90;98999.91;4991462;28;10090;-66
2023/04/01 01:34:50;;;;;;;;;2.50;2.00;;;;;10.22;86.66;99002.84;4988455;28;10151;-67
2023/04/01 01:37:20;;;;;;;;;5.50;4.00;;;;;10.18;86.28;99001.69;4974886;28;10169;-65
2023/04/01 01:39:58;;;;;;;;;2.25;2.00;;;;;10.20;86.53;99004.94;4990748;28;10957;-67
2023/04/01 01:42:26;;;;;;;;;7.00;3.50;;;;;10.20;86.69;99007.63;4991389;28;10110;-66
2023/04/01 01:44:56;;;;;;;;;3.75;2.00;;;;;10.17;86.89;99016.19;4974477;28;10271;-66
2023/04/01 01:47:25;;;;;;;;;2.00;2.00;;;;;10.14;86.50;99022.03;4975037;28;10255;-65
2023/04/01 01:49:54;;;;;;;;;2.00;2.00;;;;;10.16;86.92;99012.66;4999700;28;10064;-66
2023/04/01 01:52:23;;;;;;;;;4.00;2.00;;;;;10.21;87.22;99012.00;4974681;28;10019;-64
2023/04/01 01:54:53;;;;;;;;;2.00;2.00;;;;;10.21;86.86;99030.81;4980308;28;10953;-66
2023/04/01 01:57:44;;;;;;;;;2.00;2.00;;;;;10.24;86.76;99030.31;4990901;28;10817;-66
2023/04/01 02:00:16;;;;;;;;;4.25;4.25;;;;;10.24;86.50;99027.63;4990930;28;10045;-66
2023/04/01 02:02:46;;;;;;;;;2.75;2.75;;;;;10.22;86.65;99024.38;4990862;28;10320;-65
2023/04/01 02:05:20;;;;;;;;;3.50;3.50;;;;;10.21;86.79;99036.19;4977293;28;10081;-66
2023/04/01 02:08:12;;;;;;;;;6.75;6.75;;;;;10.20;86.67;99044.47;4974421;28;10224;-66
2023/04/01 02:10:46;;;;;;;;;6.75;6.75;;;;;10.21;87.08;99041.56;4962248;28;10315;-67
2023/04/01 02:13:24;;;;;;;;;5.25;5.25;;;;;10.19;86.76;99048.22;4988409;28;10433;-66
2023/04/01 02:15:55;;;;;;;;;9.25;8.50;;;;;10.14;86.58;99057.81;4984595;28;10341;-66
2023/04/01 02:18:22;;;;;;;;;10.75;9.50;;;;;10.14;86.98;99054.31;5009397;28;10311;-66
2023/04/01 02:20:49;;;;;;;;;11.50;10.00;;;;;10.15;86.96;99058.63;4989042;28;10412;-66
2023/04/01 02:23:15;;;;;;;;;15.00;13.25;;;;;10.11;86.78;99057.47;4988538;28;11094;-66
2023/04/01 02:25:44;;;;;;;;;12.75;11.25;;;;;10.11;87.01;99066.34;4990651;28;10602;-66
2023/04/01 02:28:13;;;;;;;;;14.00;9.25;;;;;10.10;87.30;99066.59;4990277;28;10559;-65
2023/04/01 02:30:42;;;;;;;;;22.75;17.50;;;;;10.11;87.27;99068.22;4973820;28;10447;-66
2023/04/01 02:33:09;;;;;;;;;14.25;14.25;;;;;10.15;87.80;99075.56;4995069;28;10544;-66
2023/04/01 02:35:37;;;;;;;;;15.00;13.50;;;;;10.19;87.27;99084.00;4973521;28;10552;-66
2023/04/01 02:38:05;;;;;;;;;18.00;16.75;;;;;10.20;86.91;99084.81;4973530;28;10496;-68
2023/04/01 02:40:43;;;;;;;;;12.00;12.00;;;;;10.22;87.31;99080.03;4989769;28;10510;-68
2023/04/01 02:43:09;;;;;;;;;5.25;5.25;;;;;10.22;87.56;99080.84;4973629;28;10573;-66
2023/04/01 02:45:36;;;;;;;;;13.25;11.00;;;;;10.27;87.52;99086.34;4993838;28;10449;-67
2023/04/01 02:48:02;;;;;;;;;15.00;12.75;;;;;10.26;87.56;99092.78;5003299;28;10639;-65
2023/04/01 02:50:29;;;;;;;;;10.00;10.00;;;;;10.29;87.76;99097.72;4992945;28;10474;-66
2023/04/01 02:52:56;;;;;;;;;11.00;9.50;;;;;10.31;87.11;99106.34;5010503;28;10443;-66
2023/04/01 02:55:22;;;;;;;;;16.00;11.00;;;;;10.32;87.08;99107.97;5004154;28;10389;-65
2023/04/01 02:57:49;;;;;;;;;9.00;8.75;;;;;10.32;86.91;99105.28;5005779;28;10339;-67
2023/04/01 03:00:16;;;;;;;;;9.25;9.25;;;;;10.34;87.38;99111.25;4990796;28;10316;-66
2023/04/01 03:02:44;;;;;;;;;10.00;8.75;;;;;10.33;87.21;99115.00;4985976;28;10155;-65
2023/04/01 03:05:10;;;;;;;;;11.00;10.50;;;;;10.30;86.91;99115.47;4983077;28;10265;-66
2023/04/01 03:07:37;;;;;;;;;14.50;10.00;;;;;10.28;87.03;99125.63;4990420;28;10280;-66
2023/04/01 03:10:04;;;;;;;;;6.00;5.50;;;;;10.26;86.99;99110.81;4990950;28;10471;-66
2023/04/01 03:12:31;;;;;;;;;14.50;13.50;;;;;10.23;87.53;99132.75;5006031;28;10172;-66
2023/04/01 03:14:57;;;;;;;;;8.25;8.00;;;;;10.25;87.67;99123.44;4988970;28;10276;-67
2023/04/01 03:17:37;;;;;;;;;8.75;8.50;;;;;10.25;87.65;99134.19;4980404;28;10457;-67
2023/04/01 03:20:04;;;;;;;;;9.50;7.75;;;;;10.22;88.05;99144.56;5004505;28;10407;-67
2023/04/01 03:22:31;;;;;;;;;8.75;7.50;;;;;10.22;88.30;99147.25;5005919;28;10320;-65
2023/04/01 03:24:57;;;;;;;;;8.25;8.25;;;;;10.20;88.39;99146.66;4991876;28;10275;-67
2023/04/01 03:27:24;;;;;;;;;5.25;5.00;;;;;10.23;88.40;99148.88;5009908;28;10260;-66
2023/04/01 03:29:50;;;;;;;;;6.75;5.25;;;;;10.22;88.33;99160.69;5003283;28;10174;-67
2023/04/01 03:32:18;;;;;;;;;5.50;5.50;;;;;10.22;88.49;99163.38;4996643;28;10231;-67
2023/04/01 03:34:45;;;;;;;;;8.00;5.50;;;;;10.25;88.67;99171.84;4996557;28;10167;-66
2023/04/01 03:37:11;;;;;;;;;8.75;6.50;;;;;10.24;88.58;99185.47;4996853;28;11028;-66
2023/04/01 03:39:38;;;;;;;;;5.50;4.25;;;;;10.24;88.08;99177.41;5012982;28;10077;-66
2023/04/01 03:42:06;;;;;;;;;9.50;6.50;;;;;10.21;88.44;99189.47;5006329;28;10984;-67
2023/04/01 03:44:33;;;;;;;;;8.00;6.00;;;;;10.19;88.84;99186.16;4976831;28;10205;-67
2023/04/01 03:47:00;;;;;;;;;7.75;7.00;;;;;10.17;88.63;99193.66;4987219;28;10277;-66
2023/04/01 03:49:27;;;;;;;;;5.00;5.00;;;;;10.19;89.01;99196.91;4977054;28;10231;-67
2023/04/01 03:51:54;;;;;;;;;11.50;5.50;;;;;10.19;88.24;99201.50;4994170;28;10407;-65
2023/04/01 03:54:21;;;;;;;;;9.25;6.25;;;;;10.16;89.16;99205.44;4978675;28;10197;-67
2023/04/01 03:56:48;;;;;;;;;6.75;5.50;;;;;10.18;88.64;99206.03;4993404;28;10382;-64
2023/04/01 03:59:14;;;;;;;;;7.00;4.25;;;;;10.20;88.77;99219.25;4978555;28;10150;-65
2023/04/01 04:01:41;;;;;;;;;4.25;3.00;;;;;10.23;88.56;99221.47;4992169;28;10911;-66
2023/04/01 04:04:11;;;;;;;;;4.25;4.25;;;;;10.23;88.98;99222.28;4996822;28;10024;-65
2023/04/01 04:06:38;;;;;;;;;4.00;4.00;;;;;10.21;88.71;99219.03;4971193;28;10165;-65
2023/04/01 04:09:05;;;;;;;;;6.00;5.00;;;;;10.24;88.42;99225.81;5009676;28;10243;-66
2023/04/01 04:11:32;;;;;;;;;5.25;4.75;;;;;10.21;88.19;99237.84;4982338;28;10300;-66
2023/04/01 04:13:59;;;;;;;;;9.00;5.50;;;;;10.19;88.48;99237.25;4982464;28;10352;-65
2023/04/01 04:16:26;;;;;;;;;5.25;4.00;;;;;10.20;88.62;99240.75;4994887;28;10205;-65
2023/04/01 04:18:57;;;;;;;;;5.00;5.00;;;;;10.22;88.97;99241.38;4961192;28;10916;-66
2023/04/01 04:21:24;;;;;;;;;10.00;6.50;;;;;10.23;89.04;99248.38;4988304;28;10148;-66
2023/04/01 04:23:51;;;;;;;;;8.00;7.00;;;;;10.22;88.77;99250.25;4990916;28;10406;-65
2023/04/01 04:26:18;;;;;;;;;7.75;6.00;;;;;10.26;89.05;99264.09;4976881;28;10334;-66
2023/04/01 04:28:55;;;;;;;;;8.00;6.00;;;;;10.22;88.35;99257.50;4976499;28;10163;-66
2023/04/01 04:31:23;;;;;;;;;8.00;5.00;;;;;10.20;88.48;99268.47;4975975;28;10341;-65
2023/04/01 04:33:52;;;;;;;;;5.25;5.00;;;;;10.16;88.47;99267.28;4975843;28;10177;-66
2023/04/01 04:36:19;;;;;;;;;7.75;4.25;;;;;10.16;88.48;99270.78;4975418;28;10262;-66
2023/04/01 04:38:48;;;;;;;;;6.00;5.00;;;;;10.15;88.38;99266.47;4979576;28;10341;-66
2023/04/01 04:41:17;;;;;;;;;5.75;5.25;;;;;10.12;88.46;99282.25;4978644;28;11094;-66
2023/04/01 04:43:55;;;;;;;;;8.50;6.75;;;;;10.12;88.46;99284.94;4991326;28;10245;-66
2023/04/01 04:46:24;;;;;;;;;9.00;6.75;;;;;10.11;88.84;99291.38;4993359;28;10293;-65
2023/04/01 04:48:56;;;;;;;;;5.75;3.75;;;;;10.11;88.25;99288.69;4975787;28;10249;-67
2023/04/01 04:51:24;;;;;;;;;10.00;8.00;;;;;10.11;88.97;99297.56;4991813;28;10191;-66
2023/04/01 04:53:51;;;;;;;;;8.50;5.50;;;;;10.11;88.91;99300.25;4988767;28;10475;-66
2023/04/01 04:56:25;;;;;;;;;7.75;6.25;;;;;10.11;88.61;99307.50;4989232;28;10394;-66
2023/04/01 04:59:07;;;;;;;;;8.00;7.00;;;;;10.06;88.91;99308.19;4978456;28;10350;-66
2023/04/01 05:01:42;;;;;;;;;5.00;5.00;;;;;10.09;88.88;99312.28;4977111;28;10260;-66
2023/04/01 05:04:08;;;;;;;;;7.50;6.25;;;;;10.09;89.02;99312.28;5007330;28;10199;-65
2023/04/01 05:06:35;;;;;;;;;4.50;4.50;;;;;10.05;88.60;99320.00;5003014;28;10170;-66
2023/04/01 05:09:02;;;;;;;;;8.00;8.00;;;;;10.06;88.89;99326.19;4994359;28;10226;-65
2023/04/01 05:11:28;;;;;;;;;5.75;5.75;;;;;10.05;88.78;99330.75;4994849;28;10230;-66
2023/04/01 05:13:55;;;;;;;;;5.00;5.00;;;;;10.06;88.79;99331.56;4990048;28;11020;-66
2023/04/01 05:16:22;;;;;;;;;11.25;6.00;;;;;10.02;88.98;99339.25;5007850;28;10183;-66
2023/04/01 05:18:48;;;;;;;;;7.00;6.00;;;;;10.02;88.54;99338.44;5007792;28;10193;-66
2023/04/01 05:21:15;;;;;;;;;5.00;5.00;;;;;10.00;88.43;99337.84;4989876;28;10233;-67
2023/04/01 05:23:43;;;;;;;;;8.00;5.00;;;;;9.99;88.52;99345.09;4975136;28;10157;-66
2023/04/01 05:26:14;;;;;;;;;7.00;5.50;;;;;9.98;88.36;99348.81;4989732;28;10175;-66
2023/04/01 05:28:41;;;;;;;;;7.50;6.25;;;;;10.01;88.62;99350.25;4991224;28;10990;-66
2023/04/01 05:31:09;;;;;;;;;5.25;5.25;;;;;10.00;88.21;99351.28;5007520;28;10374;-67
2023/04/01 05:33:41;;;;;;;;;12.00;9.75;;;;;9.99;88.80;99360.41;4991286;28;10240;-66
2023/04/01 05:36:14;;;;;;;;;5.75;5.00;;;;;9.98;88.46;99366.81;5002900;28;10262;-66
2023/04/01 05:38:42;;;;;;;;;8.00;7.75;;;;;9.94;88.29;99368.31;4991597;28;10232;-65
2023/04/01 05:41:11;;;;;;;;;7.50;7.50;;;;;9.93;88.80;99366.69;4989813;28;10410;-65
2023/04/01 05:43:42;;;;;;;;;8.00;8.00;;;;;9.93;88.93;99366.69;4991015;28;10388;-65
2023/04/01 05:46:47;;;;;;;;;9.25;7.00;;;;;9.96;89.37;99379.66;4991673;28;10386;-66
2023/04/01 05:49:18;;;;;;;;;8.50;7.50;;;;;9.95;89.55;99378.84;4974688;28;10305;-67
2023/04/01 05:51:45;;;;;;;;;9.25;9.25;;;;;9.99;90.15;99388.09;4958885;28;11055;-67
2023/04/01 05:54:11;;;;;;;;;13.50;8.00;;;;;10.03;89.90;99397.34;4978757;28;10417;-66
2023/04/01 05:56:38;;;;;;;;;10.25;7.00;;;;;10.07;89.54;99395.03;4986077;28;10470;-67
2023/04/01 05:59:05;;;;;;;;;10.00;6.75;;;;;10.06;89.46;99396.91;4991681;28;10359;-66
2023/04/01 06:01:31;;;;;;;;;12.50;10.00;;;;;10.05;89.41;99406.03;4976891;28;10401;-66
2023/04/01 06:03:58;;;;;;;;;12.00;11.00;;;;;10.04;89.01;99407.06;5011373;28;10394;-66
2023/04/01 06:06:31;;;;;;;;;9.00;9.00;;;;;10.01;89.56;99412.09;4975280;28;10481;-68
2023/04/01 06:09:18;;;;;;;;;13.75;9.00;;;;;9.96;89.33;99410.03;4974880;28;10537;-68
2023/04/01 06:12:07;;;;;;;;;9.00;9.00;;;;;9.97;89.63;99414.41;4993798;28;10608;-65
2023/04/01 06:14:49;;;;;;;;;12.00;9.50;;;;;10.01;90.10;99417.47;4973985;28;10470;-65
2023/04/01 06:17:44;;;;;;;;;15.75;12.25;;;;;9.95;89.15;99431.78;4983696;28;10492;-65
2023/04/01 06:20:55;;;;;;;;;13.25;10.50;;;;;9.88;89.84;99430.00;4973945;28;10678;-65
2023/04/01 06:23:52;;;;;;;;;12.75;11.75;;;;;9.90;90.50;99438.66;4960795;28;10629;-66
2023/04/01 06:26:41;;;;;;;;;14.50;10.00;;;;;9.91;90.30;99445.66;4973655;28;10554;-66
2023/04/01 06:29:29;;;;;;;;;12.50;11.25;;;;;9.91;90.39;99445.66;4973798;28;10425;-66
2023/04/01 06:32:15;;;;;;;;;12.75;8.25;;;;;9.93;90.22;99441.94;4976267;28;10567;-66
2023/04/01 06:35:01;;;;;;;;;7.00;6.25;;;;;9.96;90.36;99449.53;4973697;28;10574;-65
2023/04/01 06:37:43;;;;;;;;;5.25;5.25;;;;;9.95;90.02;99451.41;4989964;28;10434;-67
2023/04/01 06:40:22;;;;;;;;;7.00;5.00;;;;;9.89;89.85;99463.91;4973783;28;10457;-67
2023/04/01 06:42:55;;;;;;;;;6.50;6.25;;;;;9.93;90.49;99468.84;4988214;28;10554;-66
2023/04/01 06:45:45;;;;;;;;;8.25;6.50;;;;;9.94;90.54;99473.16;4989812;28;10371;-66
2023/04/01 06:49:04;;;;;;;;;5.75;4.50;;;;;9.96;89.86;99484.50;4990672;28;10287;-66
2023/04/01 06:51:58;;;;;;;;;9.50;6.00;;;;;9.90;90.03;99484.34;4991128;28;10994;-67
2023/04/01 06:54:49;;;;;;;;;10.75;7.50;;;;;9.90;90.10;99494.28;4985592;28;10558;-65
2023/04/01 06:57:42;;;;;;;;;8.50;6.25;;;;;9.93;90.02;99495.72;4976205;28;10396;-66
2023/04/01 07:00:19;;;;;;;;;9.00;8.00;;;;;9.89;90.19;99498.03;4981649;28;10247;-66
2023/04/01 07:02:55;;;;;;;;;6.00;6.00;;;;;9.91;90.64;99502.13;4992784;28;10447;-66
2023/04/01 07:05:22;;;;;;;;;12.50;9.00;;;;;9.93;90.47;99503.78;4992560;28;10448;-66
2023/04/01 07:07:53;;;;;;;;;9.50;7.75;;;;;9.95;90.46;99504.38;4982631;28;10486;-67
2023/04/01 07:10:31;;;;;;;;;11.75;11.25;;;;;9.89;90.60;99506.91;4989196;28;10548;-66
2023/04/01 07:13:47;;;;;;;;;11.50;9.25;;;;;9.92;90.05;99524.44;4933566;28;11342;-66
2023/04/01 07:16:38;;;;;;;;;11.75;10.50;;;;;9.97;90.76;99526.47;4976689;28;11429;-66
2023/04/01 07:19:33;;;;;;;;;16.50;11.00;;;;;10.02;90.55;99527.44;4990594;28;10701;-65
2023/04/01 07:22:21;;;;;;;;;11.50;10.00;;;;;10.05;90.75;99531.56;4981627;28;10632;-66
2023/04/01 07:25:14;;;;;;;;;14.25;12.25;;;;;10.04;89.99;99540.66;5005873;28;11262;-65
2023/04/01 07:27:45;;;;;;;;;13.50;12.50;;;;;10.02;90.38;99543.56;5001450;28;10555;-66
2023/04/01 07:30:18;;;;;;;;;12.75;11.00;;;;;10.01;90.25;99551.88;4991035;28;10474;-66
2023/04/01 07:33:01;;;;;;;;;10.50;9.00;;;;;10.03;90.07;99549.78;4973376;28;10636;-67
2023/04/01 07:35:46;;;;;;;;;11.25;8.00;;;;;10.04;90.15;99556.78;4973040;28;10377;-66
2023/04/01 07:38:24;;;;;;;;;11.50;11.25;;;;;10.05;90.11;99561.97;4989443;28;10489;-66
2023/04/01 07:41:00;;;;;;;;;11.25;10.50;;;;;10.05;90.55;99561.97;4973111;28;10466;-66
2023/04/01 07:43:54;;;;;;;;;10.00;8.50;;;;;10.12;90.68;99564.56;4983563;28;11502;-67
2023/04/01 07:46:50;;;;;;;;;10.25;8.25;;;;;10.19;90.37;99575.25;4972925;28;10319;-65
2023/04/01 07:49:35;;;;;;;;;8.75;8.00;;;;;10.21;90.13;99571.31;4979037;28;10408;-66
2023/04/01 07:52:12;;;;;;;;;12.75;10.75;;;;;10.22;89.63;99569.44;4969439;28;10620;-67
2023/04/01 07:55:10;;;;;;;;;10.00;8.50;;;;;10.23;89.97;99579.16;4988117;28;10421;-67
2023/04/01 07:58:04;;;;;;;;;9.50;9.50;;;;;10.27;89.56;99589.25;4980690;28;10548;-66
2023/04/01 08:00:57;;;;;;;;;13.75;12.00;;;;;10.27;89.40;99593.81;4958749;28;10324;-65
2023/04/01 08:03:56;;;;;;;;;12.75;11.25;;;;;10.24;89.50;99595.06;4973946;28;10490;-66
2023/04/01 08:06:45;;;;;;;;;14.25;10.25;;;;;10.24;89.92;99600.44;4969427;28;10490;-67
2023/04/01 08:09:35;;;;;;;;;11.00;11.00;;;;;10.28;89.53;99601.66;4973738;28;10483;-67
2023/04/01 08:12:46;;;;;;;;;15.25;12.00;;;;;10.31;90.04;99606.59;4974186;28;10501;-66
2023/04/01 08:15:57;;;;;;;;;12.50;10.25;;;;;10.32;89.56;99610.94;4991880;28;10332;-66
2023/04/01 08:18:40;;;;;;;;;15.25;10.50;;;;;10.26;89.32;99621.78;4974454;28;10506;-67
2023/04/01 08:21:23;;;;;;;;;9.00;9.00;;;;;10.28;89.72;99619.66;4995437;28;10368;-67
2023/04/01 08:24:11;;;;;;;;;11.25;9.25;;;;;10.22;89.64;99632.13;4983347;28;10319;-66
2023/04/01 08:26:45;;;;;;;;;9.25;8.75;;;;;10.27;89.48;99631.47;4980542;28;10542;-67
2023/04/01 08:29:32;;;;;;;;;8.75;8.75;;;;;10.26;89.76;99630.66;4982666;28;10419;-67
2023/04/01 08:32:07;;;;;;;;;7.00;7.00;;;;;10.27;90.04;99643.06;4992535;28;10348;-67
2023/04/01 08:34:40;;;;;;;;;12.50;11.50;;;;;10.27;90.12;99640.38;4989798;28;10472;-67
2023/04/01 08:37:30;;;;;;;;;9.25;9.25;;;;;10.34;89.74;99646.50;4993083;28;10344;-67
2023/04/01 08:40:22;;;;;;;;;14.00;12.75;;;;;10.32;89.67;99655.84;4987205;28;10228;-67
2023/04/01 08:43:06;;;;;;;;;14.00;9.75;;;;;10.34;89.77;99648.38;4962644;28;10448;-69
2023/04/01 08:45:59;;;;;;;;;8.25;6.50;;;;;10.36;89.59;99657.84;4977332;28;10428;-67
2023/04/01 08:48:51;;;;;;;;;10.50;8.50;;;;;10.39;89.79;99654.72;4975480;28;10322;-66
2023/04/01 08:51:51;;;;;;;;;10.75;6.00;;;;;10.44;89.89;99666.69;4981234;28;10989;-66
2023/04/01 08:54:48;;;;;;;;;7.50;7.00;;;;;10.48;89.66;99673.28;4970487;28;10330;-67
2023/04/01 08:58:03;;;;;;;;;6.75;3.00;;;;;10.48;89.77;99671.41;4979054;28;10188;-66
2023/04/01 09:01:04;;;;;;;;;8.25;6.75;;;;;10.49;89.73;99678.44;4975385;28;10164;-66
2023/04/01 09:04:17;;;;;;;;;7.00;6.00;;;;;10.45;89.21;99681.78;4974547;28;10233;-66
2023/04/01 09:06:56;;;;;;;;;12.25;9.25;;;;;10.46;89.54;99675.38;4990895;28;10174;-66
2023/04/01 09:09:42;;;;;;;;;9.75;9.25;;;;;10.48;89.14;99684.03;4991976;28;10250;-66
2023/04/01 09:12:23;;;;;;;;;8.00;6.25;;;;;10.51;89.79;99683.59;4992974;28;11004;-66
2023/04/01 09:15:20;;;;;;;;;8.50;7.25;;;;;10.56;89.74;99689.13;4974270;28;10182;-68
2023/04/01 09:18:12;;;;;;;;;10.25;9.50;;;;;10.63;89.82;99696.09;4991359;28;10320;-66
2023/04/01 09:20:51;;;;;;;;;6.50;5.75;;;;;10.70;90.25;99695.22;4974497;28;10328;-66
2023/04/01 09:23:43;;;;;;;;;8.25;5.50;;;;;10.71;89.74;99697.69;4974664;28;10431;-68
2023/04/01 09:26:31;;;;;;;;;9.25;7.50;;;;;10.74;89.82;99702.63;4980252;28;10187;-66
2023/04/01 09:29:24;;;;;;;;;7.25;7.25;;;;;10.77;89.79;99707.53;4985393;28;10317;-66
2023/04/01 09:32:17;;;;;;;;;12.00;7.75;;;;;10.83;89.65;99703.97;4988072;28;10432;-67
2023/04/01 09:35:24;;;;;;;;;8.00;5.75;;;;;10.86;89.04;99705.41;4973345;28;10337;-68
2023/04/01 09:38:02;;;;;;;;;7.75;6.75;;;;;10.86;89.54;99716.97;4996342;28;10359;-67
2023/04/01 09:40:55;;;;;;;;;11.00;9.25;;;;;10.88;89.58;99714.06;4990302;28;10212;-66
2023/04/01 09:44:01;;;;;;;;;10.25;7.25;;;;;10.91;88.52;99726.25;4973810;28;10187;-67
2023/04/01 09:47:01;;;;;;;;;7.75;7.00;;;;;10.91;88.83;99729.78;4971497;28;10119;-67
2023/04/01 09:49:30;;;;;;;;;13.25;10.50;;;;;10.85;89.02;99733.34;4956786;28;10167;-68
2023/04/01 09:52:35;;;;;;;;;12.00;11.25;;;;;10.79;88.73;99729.69;4980618;28;10371;-67
2023/04/01 09:55:19;;;;;;;;;11.75;11.75;;;;;10.83;89.34;99732.75;4978493;28;10249;-66
2023/04/01 09:58:23;;;;;;;;;12.00;10.50;;;;;10.85;89.18;99742.25;4996122;28;10166;-67
2023/04/01 10:01:41;;;;;;;;;12.50;12.50;;;;;10.89;89.42;99748.81;4989790;28;10954;-67
2023/04/01 10:04:28;;;;;;;;;9.25;6.00;;;;;10.99;89.49;99747.50;4981889;28;10245;-67
2023/04/01 10:07:10;;;;;;;;;13.00;12.00;;;;;11.00;89.07;99758.03;4996282;23;10255;-67
2023/04/01 10:10:22;;;;;;;;;11.25;10.50;;;;;10.93;88.48;99761.84;4989807;28;10198;-67
2023/04/01 10:13:20;;;;;;;;;12.25;10.25;;;;;10.87;89.01;99761.69;4975416;28;10234;-67
2023/04/01 10:16:29;;;;;;;;;8.50;8.50;;;;;10.95;89.25;99773.22;4979254;28;10381;-66
2023/04/01 10:19:34;;;;;;;;;6.00;6.00;;;;;10.97;88.86;99768.44;4939535;28;10110;-68
2023/04/01 10:22:34;;;;;;;;;6.50;5.75;;;;;11.00;89.13;99774.19;4952602;28;10162;-68
2023/04/01 10:25:23;;;;;;;;;8.75;5.75;;;;;11.06;89.33;99775.16;4945333;28;10350;-68
2023/04/01 10:28:31;;;;;;;;;8.75;6.00;;;;;11.12;89.43;99782.38;4965754;28;10154;-68
2023/04/01 10:31:22;;;;;;;;;8.75;8.75;;;;;11.23;89.47;99775.41;4985364;28;10021;-67
2023/04/01 10:34:27;;;;;;;;;5.25;4.50;;;;;11.29;88.64;99779.91;4969308;28;10120;-66
2023/04/01 10:37:01;;;;;;;;;8.50;8.25;;;;;11.28;89.08;99779.06;4973278;28;10038;-66
2023/04/01 10:39:58;;;;;;;;;5.50;5.50;;;;;11.33;88.93;99787.28;4973944;28;10024;-67
2023/04/01 10:43:15;;;;;;;;;6.00;6.00;;;;;11.42;89.00;99784.31;4963778;28;10798;-67
2023/04/01 10:46:05;;;;;;;;;4.00;4.00;;;;;11.64;89.40;99785.50;4958354;28;10127;-66
2023/04/01 10:49:19;;;;;;;;;4.75;4.75;;;;;11.72;88.86;99789.75;4973000;28;9948;-68
2023/04/01 10:52:15;;;;;;;;;5.00;5.00;;;;;11.69;87.59;99792.88;4973704;28;10152;-68
2023/04/01 10:55:37;;;;;;;;;6.00;6.00;;;;;11.58;87.26;99789.06;4976826;28;9801;-67
2023/04/01 10:59:06;;;;;;;;;8.00;5.25;;;;;11.51;87.74;99793.75;4971990;28;9931;-67
2023/04/01 11:01:58;;;;;;;;;9.00;6.25;;;;;11.49;87.98;99799.34;4982776;28;9917;-67
2023/04/01 11:05:16;;;;;;;;;9.00;7.00;;;;;11.52;87.82;99804.28;4981169;28;10019;-67
2023/04/01 11:08:26;;;;;;;;;4.50;4.50;;;;;11.55;87.90;99811.94;4959417;28;10022;-66
2023/04/01 11:11:11;;;;;;;;;6.50;6.00;;;;;11.52;87.43;99809.69;4965395;28;10551;-66
2023/04/01 11:13:57;;;;;;;;;5.75;5.75;;;;;11.51;87.13;99815.31;4971842;28;10043;-67
2023/04/01 11:17:01;;;;;;;;;7.75;5.25;;;;;11.53;87.76;99821.28;4958610;28;9857;-61
2023/04/01 11:19:38;;;;;;;;;8.75;8.75;;;;;11.67;87.94;99828.16;4972217;28;9858;-66
2023/04/01 11:22:33;;;;;;;;;10.00;7.00;;;;;11.75;87.26;99829.72;4970025;28;9947;-64
2023/04/01 11:25:39;;;;;;;;;10.00;7.50;;;;;11.70;86.44;99830.38;4972516;28;9927;-66
2023/04/01 11:28:48;;;;;;;;;5.50;5.00;;;;;11.68;86.58;99843.28;4988433;28;10040;-67
2023/04/01 11:32:09;;;;;;;;;10.25;9.25;;;;;11.68;86.55;99845.16;4969288;28;9913;-66
2023/04/01 11:34:48;;;;;;;;;6.00;6.00;;;;;11.71;86.29;99855.47;4901545;29;10052;-65
2023/04/01 11:37:46;;;;;;;;;14.00;11.75;;;;;11.61;85.99;99847.94;4898581;29;10000;-67
2023/04/01 11:40:49;;;;;;;;;12.25;7.75;;;;;11.64;86.36;99853.69;4979909;28;10182;-66
2023/04/01 11:43:57;;;;;;;;;12.00;10.00;;;;;11.66;86.52;99866.94;4971399;28;9913;-66
2023/04/01 11:46:54;;;;;;;;;12.25;11.00;;;;;11.69;86.55;99865.69;4970795;28;9939;-66
2023/04/01 11:49:36;;;;;;;;;12.00;11.00;;;;;11.64;86.66;99869.88;4989662;28;10060;-67
2023/04/01 11:52:39;;;;;;;;;10.25;10.00;;;;;11.63;86.90;99870.09;4971833;28;9933;-66
2023/04/01 11:55:21;;;;;;;;;9.75;9.50;;;;;11.60;86.21;99878.63;4993200;28;10806;-67
2023/04/01 11:57:57;;;;;;;;;14.00;12.00;;;;;11.63;87.26;99884.41;4987680;28;10156;-66
2023/04/01 12:00:24;;;;;;;;;10.25;9.75;;;;;11.71;86.98;99887.81;4993192;28;10269;-65
2023/04/01 12:03:26;;;;;;;;;11.50;11.50;;;;;11.71;86.19;99891.38;4985239;28;10068;-66
2023/04/01 12:06:25;;;;;;;;;14.50;13.00;;;;;11.74;86.58;99890.91;4985412;28;10223;-65
2023/04/01 12:09:04;;;;;;;;;17.75;14.00;;;;;11.76;86.53;99898.78;4986180;28;9932;-66
2023/04/01 12:11:52;;;;;;;;;17.00;11.00;;;;;11.85;86.04;99900.97;4987140;28;10330;-65
2023/04/01 12:14:24;;;;;;;;;11.25;10.00;;;;;11.86;85.88;99916.09;4976040;28;10141;-65
2023/04/01 12:17:23;;;;;;;;;11.00;11.00;;;;;11.88;86.17;99903.22;4993821;28;10168;-66
2023/04/01 12:19:52;;;;;;;;;13.75;10.00;;;;;11.88;85.86;99908.63;4992259;28;9998;-65
2023/04/01 12:22:43;;;;;;;;;13.50;13.50;;;;;11.88;86.03;99911.31;4992459;28;9873;-66
2023/04/01 12:25:45;;;;;;;;;15.00;11.75;;;;;11.87;85.78;99920.47;4987224;28;9846;-65
2023/04/01 12:28:29;;;;;;;;;12.00;11.00;;;;;11.79;85.63;99928.00;4993979;28;10120;-65
2023/04/01 12:31:13;;;;;;;;;11.00;10.00;;;;;11.78;86.42;99926.31;4991178;28;9918;-65
2023/04/01 12:33:55;;;;;;;;;16.50;11.50;;;;;11.76;85.81;99937.34;4973803;28;9956;-67